Wakayoshi Maru No.3 — JD3947 — position and weather

sailwx.info

Track history (hours):
 
Tides and Currents Weather Stations Pressure Air Temp Water Temp Dewpoint Dewpoint Depression Visibility Wind Speed Wind Dir Waves Ship Positions

Wakayoshi Maru No.3

Last reported at 2017-Nov-18 05:58 UTC. Time now 2017-Nov-18 06:12 UTC.
Position N 35°30' E 139°58'.

Length 64 m; draft 4.5 m.

Type: Tanker. MMSI: 431007002.

Date/timePositionNaut miles runAvg speedWind from/ knotsBaromVisibWave heightAir tempDewpointWater temp
2017-Nov-18 05:58N 35°30' E 139°58'2 0.5
2017-Nov-18 01:32N 35°29' E 140°00'1 0.1
2017-Nov-17 13:29N 35°30' E 139°60'612.3
2017-Nov-17 13:00N 35°29' E 139°52'612.2
2017-Nov-17 12:30N 35°25' E 139°47'612.1
2017-Nov-17 12:00N 35°19' E 139°44'611.3
2017-Nov-17 11:30N 35°14' E 139°47'611.9
2017-Nov-17 11:00N 35°08' E 139°46'713.3
2017-Nov-17 10:30N 35°01' E 139°44'711.5
2017-Nov-17 09:55N 34°55' E 139°46'3 0.2
2017-Nov-16 13:44N 34°53' E 139°49'3 9.9
2017-Nov-16 13:29N 34°54' E 139°46'510.6
2017-Nov-16 13:00N 34°58' E 139°43'611.9
2017-Nov-16 12:30N 35°04' E 139°44'612.2
2017-Nov-16 12:00N 35°10' E 139°46'612.6
2017-Nov-16 11:30N 35°16' E 139°46'611.8
2017-Nov-16 11:00N 35°21' E 139°42'611.4
2017-Nov-16 10:30N 35°26' E 139°46'612.4
2017-Nov-16 10:00N 35°30' E 139°52'6 1.6
2017-Nov-16 06:06N 35°30' E 140°00'0 1.3
2017-Nov-16 05:50N 35°30' E 139°60'511.8
2017-Nov-16 05:26N 35°30' E 139°54'3 7.3
2017-Nov-16 05:01N 35°30' E 139°50'0 0.0
2017-Nov-16 04:28N 35°30' E 139°50'0 0.0
2017-Nov-16 03:43N 35°30' E 139°50'0 0.0
2017-Nov-16 03:22N 35°30' E 139°50'0 0.0
2017-Nov-16 02:58N 35°30' E 139°50'0 0.0
2017-Nov-16 02:25N 35°30' E 139°50'0 0.0
2017-Nov-16 01:55N 35°30' E 139°50'0 0.0
2017-Nov-16 01:28N 35°30' E 139°50'0 0.0
2017-Nov-16 00:55N 35°30' E 139°50'0 0.1
2017-Nov-16 00:28N 35°30' E 139°50'0 0.0
2017-Nov-15 23:58N 35°30' E 139°50'0 0.0
2017-Nov-15 23:28N 35°30' E 139°50'0 0.0
2017-Nov-15 22:58N 35°30' E 139°50'0 0.0
2017-Nov-15 22:28N 35°30' E 139°50'0 0.1
2017-Nov-15 21:58N 35°30' E 139°50'0 0.1
2017-Nov-15 21:28N 35°30' E 139°50'0 0.1
2017-Nov-15 20:58N 35°30' E 139°50'0 0.0
2017-Nov-15 20:30N 35°30' E 139°50'5 9.5
2017-Nov-15 20:00N 35°26' E 139°47'510.3
2017-Nov-15 19:30N 35°21' E 139°45'5 9.9
2017-Nov-15 19:00N 35°16' E 139°46'510.9
2017-Nov-15 18:30N 35°11' E 139°47'510.7
2017-Nov-15 18:00N 35°06' E 139°45'611.2
2017-Nov-15 17:30N 35°02' E 139°40'611.7
2017-Nov-15 17:00N 34°58' E 139°34'6 0.2
2017-Nov-14 10:12N 34°58' E 139°27'211.3
2017-Nov-14 10:00N 34°59' E 139°29'611.2
2017-Nov-14 09:30N 35°03' E 139°35'611.6
2017-Nov-14 09:00N 35°06' E 139°40'611.9
2017-Nov-14 08:31N 35°11' E 139°45'611.7
2017-Nov-14 08:01N 35°16' E 139°45'612.1
2017-Nov-14 07:31N 35°22' E 139°42'611.6
2017-Nov-14 07:00N 35°27' E 139°47'611.9
2017-Nov-14 06:30N 35°30' E 139°53'612.0
2017-Nov-14 06:00N 35°29' E 140°00'1 0.2
2017-Nov-14 00:24N 35°30' E 139°59'410.1
2017-Nov-13 23:59N 35°29' E 139°54'511.1
2017-Nov-13 23:30N 35°26' E 139°48'510.9
2017-Nov-13 23:00N 35°21' E 139°45'5 9.8
2017-Nov-13 22:31N 35°16' E 139°46'5 9.7
2017-Nov-13 22:00N 35°12' E 139°47'19 0.5
2017-Nov-12 08:14N 34°59' E 139°29'310.2
2017-Nov-12 07:58N 35°01' E 139°32'510.2
2017-Nov-12 07:30N 35°04' E 139°36'510.3
2017-Nov-12 07:00N 35°07' E 139°41'611.0
2017-Nov-12 06:30N 35°11' E 139°45'611.2
2017-Nov-12 06:01N 35°17' E 139°45'611.5
2017-Nov-12 05:30N 35°22' E 139°41'4 7.4
2017-Nov-12 05:01N 35°24' E 139°38'0 0.0
2017-Nov-12 04:31N 35°24' E 139°38'0 0.0
2017-Nov-12 04:01N 35°24' E 139°38'0 0.0
2017-Nov-12 03:31N 35°24' E 139°38'0 0.0
2017-Nov-12 03:01N 35°24' E 139°38'0 0.0
2017-Nov-12 02:31N 35°24' E 139°38'1 1.9
2017-Nov-12 02:01N 35°24' E 139°39'1 2.8
2017-Nov-12 01:31N 35°23' E 139°41'5 9.5
2017-Nov-12 01:01N 35°19' E 139°44'611.6
2017-Nov-12 00:30N 35°14' E 139°47'510.9
2017-Nov-12 00:00N 35°09' E 139°46'510.4
2017-Nov-11 23:30N 35°04' E 139°45'610.3
2017-Nov-11 22:56N 34°58' E 139°44'  
Track history (hours):
 
Tides and Currents Weather Stations Pressure Air Temp Water Temp Dewpoint Dewpoint Depression Visibility Wind Speed Wind Dir Waves Ship Positions

Wakayoshi Maru No.3

Last reported at 2017-Nov-18 05:58 UTC. Time now 2017-Nov-18 06:12 UTC.
Position N 35°30' E 139°58'.

Length 64 m; draft 4.5 m.

Type: Tanker. MMSI: 431007002.

Date/timePositionNaut miles runAvg speedWind from/ knotsBaromVisibWave heightAir tempDewpointWater temp
2017-Nov-18 05:58N 35°30' E 139°58'2 0.5
2017-Nov-18 01:32N 35°29' E 140°00'1 0.1
2017-Nov-17 13:29N 35°30' E 139°60'612.3
2017-Nov-17 13:00N 35°29' E 139°52'612.2
2017-Nov-17 12:30N 35°25' E 139°47'612.1
2017-Nov-17 12:00N 35°19' E 139°44'611.3
2017-Nov-17 11:30N 35°14' E 139°47'611.9
2017-Nov-17 11:00N 35°08' E 139°46'713.3
2017-Nov-17 10:30N 35°01' E 139°44'711.5
2017-Nov-17 09:55N 34°55' E 139°46'3 0.2
2017-Nov-16 13:44N 34°53' E 139°49'3 9.9
2017-Nov-16 13:29N 34°54' E 139°46'510.6
2017-Nov-16 13:00N 34°58' E 139°43'611.9
2017-Nov-16 12:30N 35°04' E 139°44'612.2
2017-Nov-16 12:00N 35°10' E 139°46'612.6
2017-Nov-16 11:30N 35°16' E 139°46'611.8
2017-Nov-16 11:00N 35°21' E 139°42'611.4
2017-Nov-16 10:30N 35°26' E 139°46'612.4
2017-Nov-16 10:00N 35°30' E 139°52'6 1.6
2017-Nov-16 06:06N 35°30' E 140°00'0 1.3
2017-Nov-16 05:50N 35°30' E 139°60'511.8
2017-Nov-16 05:26N 35°30' E 139°54'3 7.3
2017-Nov-16 05:01N 35°30' E 139°50'0 0.0
2017-Nov-16 04:28N 35°30' E 139°50'0 0.0
2017-Nov-16 03:43N 35°30' E 139°50'0 0.0
2017-Nov-16 03:22N 35°30' E 139°50'0 0.0
2017-Nov-16 02:58N 35°30' E 139°50'0 0.0
2017-Nov-16 02:25N 35°30' E 139°50'0 0.0
2017-Nov-16 01:55N 35°30' E 139°50'0 0.0
2017-Nov-16 01:28N 35°30' E 139°50'0 0.0
2017-Nov-16 00:55N 35°30' E 139°50'0 0.1
2017-Nov-16 00:28N 35°30' E 139°50'0 0.0
2017-Nov-15 23:58N 35°30' E 139°50'0 0.0
2017-Nov-15 23:28N 35°30' E 139°50'0 0.0
2017-Nov-15 22:58N 35°30' E 139°50'0 0.0
2017-Nov-15 22:28N 35°30' E 139°50'0 0.1
2017-Nov-15 21:58N 35°30' E 139°50'0 0.1
2017-Nov-15 21:28N 35°30' E 139°50'0 0.1
2017-Nov-15 20:58N 35°30' E 139°50'0 0.0
2017-Nov-15 20:30N 35°30' E 139°50'5 9.5
2017-Nov-15 20:00N 35°26' E 139°47'510.3
2017-Nov-15 19:30N 35°21' E 139°45'5 9.9
2017-Nov-15 19:00N 35°16' E 139°46'510.9
2017-Nov-15 18:30N 35°11' E 139°47'510.7
2017-Nov-15 18:00N 35°06' E 139°45'611.2
2017-Nov-15 17:30N 35°02' E 139°40'611.7
2017-Nov-15 17:00N 34°58' E 139°34'6 0.2
2017-Nov-14 10:12N 34°58' E 139°27'211.3
2017-Nov-14 10:00N 34°59' E 139°29'611.2
2017-Nov-14 09:30N 35°03' E 139°35'611.6
2017-Nov-14 09:00N 35°06' E 139°40'611.9
2017-Nov-14 08:31N 35°11' E 139°45'611.7
2017-Nov-14 08:01N 35°16' E 139°45'612.1
2017-Nov-14 07:31N 35°22' E 139°42'611.6
2017-Nov-14 07:00N 35°27' E 139°47'611.9
2017-Nov-14 06:30N 35°30' E 139°53'612.0
2017-Nov-14 06:00N 35°29' E 140°00'1 0.2
2017-Nov-14 00:24N 35°30' E 139°59'410.1
2017-Nov-13 23:59N 35°29' E 139°54'511.1
2017-Nov-13 23:30N 35°26' E 139°48'510.9
2017-Nov-13 23:00N 35°21' E 139°45'5 9.8
2017-Nov-13 22:31N 35°16' E 139°46'5 9.7
2017-Nov-13 22:00N 35°12' E 139°47'19 0.5
2017-Nov-12 08:14N 34°59' E 139°29'310.2
2017-Nov-12 07:58N 35°01' E 139°32'510.2
2017-Nov-12 07:30N 35°04' E 139°36'510.3
2017-Nov-12 07:00N 35°07' E 139°41'611.0
2017-Nov-12 06:30N 35°11' E 139°45'611.2
2017-Nov-12 06:01N 35°17' E 139°45'611.5
2017-Nov-12 05:30N 35°22' E 139°41'4 7.4
2017-Nov-12 05:01N 35°24' E 139°38'0 0.0
2017-Nov-12 04:31N 35°24' E 139°38'0 0.0
2017-Nov-12 04:01N 35°24' E 139°38'0 0.0
2017-Nov-12 03:31N 35°24' E 139°38'0 0.0
2017-Nov-12 03:01N 35°24' E 139°38'0 0.0
2017-Nov-12 02:31N 35°24' E 139°38'1 1.9
2017-Nov-12 02:01N 35°24' E 139°39'1 2.8
2017-Nov-12 01:31N 35°23' E 139°41'5 9.5
2017-Nov-12 01:01N 35°19' E 139°44'611.6
2017-Nov-12 00:30N 35°14' E 139°47'510.9
2017-Nov-12 00:00N 35°09' E 139°46'510.4
2017-Nov-11 23:30N 35°04' E 139°45'610.3
2017-Nov-11 22:56N 34°58' E 139°44'  

Dump ship's entire track history